Time;durP1;ratioP1;P1;durP2;ratioP2;P2;SDS_P1;SDS_P2;PMS_P1;PMS_P2;Temp;Humidity;BMP_temperature;BMP_pressure;BME280_temperature;BME280_humidity;BME280_pressure;Samples;Min_cycle;Max_cycle;Signal;HPM_P1;HPM_P2
2023/06/18 00:02:17;;;;;;;8.88;5.75;;;15.90;99.90;;;;;;5019987;28;20115;-66
2023/06/18 00:04:42;;;;;;;6.72;5.95;;;15.90;99.90;;;;;;5020123;28;20029;-66
2023/06/18 00:07:08;;;;;;;7.30;6.28;;;15.80;99.90;;;;;;5002319;28;20040;-66
2023/06/18 00:09:34;;;;;;;6.10;4.82;;;15.80;99.90;;;;;;5019777;28;20029;-66
2023/06/18 00:12:00;;;;;;;11.00;6.25;;;15.80;99.90;;;;;;5019705;28;20046;-66
2023/06/18 00:14:25;;;;;;;8.93;5.70;;;15.70;99.90;;;;;;5023269;28;20036;-66
2023/06/18 00:16:52;;;;;;;9.75;6.20;;;15.70;99.90;;;;;;5020780;28;20040;-66
2023/06/18 00:19:18;;;;;;;8.43;5.85;;;15.70;99.90;;;;;;5023514;28;20045;-66
2023/06/18 00:21:43;;;;;;;6.45;5.85;;;15.70;99.90;;;;;;5023009;28;20547;-66
2023/06/18 00:24:09;;;;;;;8.60;5.95;;;15.60;99.90;;;;;;5024390;28;20083;-66
2023/06/18 00:26:35;;;;;;;11.43;6.70;;;15.60;99.90;;;;;;5024027;28;20026;-66
2023/06/18 00:29:02;;;;;;;7.53;6.38;;;15.60;99.90;;;;;;5021507;28;20040;-66
2023/06/18 00:31:28;;;;;;;7.10;6.47;;;15.60;99.90;;;;;;5006551;28;20038;-66
2023/06/18 00:33:55;;;;;;;8.35;6.18;;;15.60;99.90;;;;;;5023922;28;20033;-67
2023/06/18 00:36:26;;;;;;;8.43;6.75;;;15.50;99.90;;;;;;5004209;28;20029;-66
2023/06/18 00:38:51;;;;;;;8.32;7.32;;;15.50;99.90;;;;;;5024273;28;20456;-66
2023/06/18 00:41:18;;;;;;;10.05;7.35;;;15.40;99.90;;;;;;5023771;28;20064;-66
2023/06/18 00:43:43;;;;;;;7.72;6.30;;;15.40;99.90;;;;;;5006052;28;20559;-66
2023/06/18 00:46:11;;;;;;;7.32;6.57;;;15.40;99.90;;;;;;5005810;28;20128;-67
2023/06/18 00:48:40;;;;;;;9.15;6.72;;;15.40;99.90;;;;;;5023782;28;20025;-66
2023/06/18 00:51:07;;;;;;;7.50;5.97;;;15.40;99.90;;;;;;5023926;28;20037;-66
2023/06/18 00:53:33;;;;;;;9.25;7.25;;;15.40;99.90;;;;;;5005072;28;20432;-66
2023/06/18 00:55:59;;;;;;;12.90;9.13;;;15.40;99.90;;;;;;5023137;28;20087;-66
2023/06/18 00:58:25;;;;;;;10.57;8.88;;;15.40;99.90;;;;;;5023556;28;20041;-66
2023/06/18 01:00:51;;;;;;;10.07;8.38;;;15.40;99.90;;;;;;5023849;28;20021;-66
2023/06/18 01:03:21;;;;;;;11.93;9.30;;;15.50;99.90;;;;;;5005008;28;20445;-66
2023/06/18 01:05:54;;;;;;;9.48;8.00;;;15.50;99.90;;;;;;5023734;28;20205;-66
2023/06/18 01:08:23;;;;;;;12.15;8.63;;;15.50;99.90;;;;;;5023037;28;20565;-66
2023/06/18 01:11:09;;;;;;;11.25;8.27;;;15.50;99.90;;;;;;5006039;28;20753;-66
2023/06/18 01:13:40;;;;;;;9.25;7.28;;;15.50;99.90;;;;;;4999956;28;20043;-66
2023/06/18 01:16:07;;;;;;;9.55;7.88;;;15.60;99.90;;;;;;5022679;28;20037;-66
2023/06/18 01:18:45;;;;;;;10.70;8.52;;;15.60;99.90;;;;;;5015760;28;20033;-65
2023/06/18 01:21:15;;;;;;;10.43;8.82;;;15.60;99.90;;;;;;5005730;28;20033;-66
2023/06/18 01:24:01;;;;;;;14.27;9.20;;;15.70;99.90;;;;;;5024109;28;20124;-66
2023/06/18 01:26:28;;;;;;;;;;;15.70;99.90;;;;;;5023289;28;20029;-66
2023/06/18 01:28:58;;;;;;;11.63;8.60;;;15.70;99.90;;;;;;5022741;28;19913;-66
2023/06/18 01:31:25;;;;;;;9.52;8.50;;;15.70;99.90;;;;;;5023542;28;20041;-66
2023/06/18 01:33:53;;;;;;;10.13;9.13;;;15.80;99.90;;;;;;5005389;28;20064;-66
2023/06/18 01:36:47;;;;;;;9.85;8.88;;;15.80;99.90;;;;;;5021116;28;20041;-66
2023/06/18 01:39:29;;;;;;;11.07;9.88;;;15.80;99.90;;;;;;5021440;28;20124;-66
2023/06/18 01:42:06;;;;;;;11.15;9.70;;;15.90;99.90;;;;;;5022096;28;20025;-66
2023/06/18 01:44:33;;;;;;;12.32;8.77;;;15.90;99.90;;;;;;5022375;28;20029;-66
2023/06/18 01:46:59;;;;;;;15.00;9.48;;;15.90;99.90;;;;;;5022794;28;20033;-66
2023/06/18 01:49:27;;;;;;;10.52;8.43;;;15.90;99.90;;;;;;5004590;28;20041;-66
2023/06/18 01:51:55;;;;;;;12.05;9.48;;;15.90;99.90;;;;;;5004510;28;20072;-67
2023/06/18 01:54:23;;;;;;;10.27;8.38;;;15.80;99.90;;;;;;5020707;28;20247;-67
2023/06/18 01:56:49;;;;;;;13.38;8.93;;;15.80;99.90;;;;;;5022201;28;20030;-66
2023/06/18 01:59:15;;;;;;;10.98;8.02;;;15.80;99.90;;;;;;5004835;28;20040;-66
2023/06/18 02:01:41;;;;;;;14.43;7.97;;;15.70;99.90;;;;;;5005076;28;20056;-66
2023/06/18 02:04:07;;;;;;;15.30;9.18;;;15.70;99.90;;;;;;5022301;28;20122;-66
2023/06/18 02:06:33;;;;;;;11.20;8.05;;;15.70;99.90;;;;;;5004618;28;20077;-66
2023/06/18 02:08:59;;;;;;;10.32;8.45;;;15.70;99.90;;;;;;5004060;28;20041;-66
2023/06/18 02:11:25;;;;;;;11.05;8.43;;;15.70;99.90;;;;;;5003764;28;20040;-66
2023/06/18 02:13:51;;;;;;;11.82;8.90;;;15.70;99.90;;;;;;5021932;28;20635;-66
2023/06/18 02:16:17;;;;;;;11.02;8.38;;;15.70;99.90;;;;;;5003873;28;20044;-66
2023/06/18 02:18:43;;;;;;;19.27;10.55;;;15.60;99.90;;;;;;5003668;28;20037;-66
2023/06/18 02:21:09;;;;;;;18.08;10.18;;;15.60;99.90;;;;;;5021550;28;20033;-66
2023/06/18 02:23:35;;;;;;;16.77;9.85;;;15.60;99.90;;;;;;5004267;28;20026;-67
2023/06/18 02:26:02;;;;;;;17.77;9.95;;;15.50;99.90;;;;;;5004450;28;20029;-66
2023/06/18 02:28:28;;;;;;;13.98;9.18;;;15.50;99.90;;;;;;5021210;28;20025;-66
2023/06/18 02:30:55;;;;;;;12.77;9.65;;;15.40;99.90;;;;;;4994553;28;20044;-66
2023/06/18 02:33:22;;;;;;;12.13;9.05;;;15.30;99.90;;;;;;5021102;28;20030;-67
2023/06/18 02:35:48;;;;;;;13.95;8.48;;;15.20;99.90;;;;;;5021279;28;20393;-66
2023/06/18 02:38:14;;;;;;;12.00;8.80;;;15.20;99.90;;;;;;5003555;28;20032;-66
2023/06/18 02:40:40;;;;;;;14.27;8.80;;;15.10;99.90;;;;;;5021226;28;20392;-66
2023/06/18 02:43:06;;;;;;;12.55;8.60;;;15.00;99.90;;;;;;5002989;28;20032;-66
2023/06/18 02:45:32;;;;;;;10.43;8.10;;;15.00;99.90;;;;;;5021259;28;20079;-66
2023/06/18 02:47:58;;;;;;;14.30;8.93;;;15.00;99.90;;;;;;5001592;28;20100;-66
2023/06/18 02:50:24;;;;;;;18.30;8.85;;;14.90;99.90;;;;;;5019534;28;20037;-66
2023/06/18 02:52:51;;;;;;;13.18;8.57;;;14.90;99.90;;;;;;5020383;28;20025;-65
2023/06/18 02:55:17;;;;;;;10.85;8.73;;;14.90;99.90;;;;;;5021090;28;20055;-66
2023/06/18 02:57:43;;;;;;;12.23;8.57;;;14.90;99.90;;;;;;5002837;28;20496;-66
2023/06/18 03:00:11;;;;;;;9.52;7.95;;;14.90;99.90;;;;;;5003191;28;20677;-66
2023/06/18 03:02:43;;;;;;;8.85;7.45;;;14.90;99.90;;;;;;5003375;28;20060;-66
2023/06/18 03:05:14;;;;;;;10.83;8.30;;;14.90;99.90;;;;;;5002260;28;20505;-66
2023/06/18 03:07:40;;;;;;;12.07;8.18;;;14.80;99.90;;;;;;5002520;28;20025;-67
2023/06/18 03:10:08;;;;;;;11.15;8.40;;;14.90;99.90;;;;;;5003456;28;20033;-66
2023/06/18 03:12:35;;;;;;;10.00;7.57;;;14.90;99.90;;;;;;5002836;28;20025;-66
2023/06/18 03:15:05;;;;;;;11.85;9.45;;;14.90;99.90;;;;;;5003211;28;20036;-66
2023/06/18 03:17:31;;;;;;;12.93;9.73;;;14.90;99.90;;;;;;5002462;28;20075;-66
2023/06/18 03:19:57;;;;;;;10.80;9.05;;;14.90;99.90;;;;;;5002486;28;20044;-67
2023/06/18 03:22:23;;;;;;;9.50;7.88;;;14.90;99.90;;;;;;5002923;28;20030;-66
2023/06/18 03:24:51;;;;;;;10.32;7.93;;;14.90;99.90;;;;;;5003318;28;20810;-66
2023/06/18 03:27:16;;;;;;;13.23;9.40;;;14.90;99.90;;;;;;5002865;28;20041;-66
2023/06/18 03:29:43;;;;;;;10.60;8.50;;;15.00;99.90;;;;;;5003048;28;20084;-66
2023/06/18 03:32:10;;;;;;;10.85;7.85;;;15.00;99.90;;;;;;5020655;28;20044;-65
2023/06/18 03:34:42;;;;;;;10.52;8.20;;;15.00;99.90;;;;;;5002404;28;20120;-66
2023/06/18 03:37:08;;;;;;;10.05;8.20;;;15.00;99.90;;;;;;5003155;28;20083;-66
2023/06/18 03:39:35;;;;;;;10.13;7.38;;;15.00;99.90;;;;;;4993724;28;20037;-66
2023/06/18 03:42:01;;;;;;;10.05;8.25;;;15.00;99.90;;;;;;5002780;28;20025;-66
2023/06/18 03:44:27;;;;;;;11.18;8.90;;;15.00;99.90;;;;;;5001771;28;20032;-66
2023/06/18 03:46:53;;;;;;;9.20;7.82;;;15.00;99.90;;;;;;5020365;28;20577;-66
2023/06/18 03:49:19;;;;;;;12.23;8.98;;;15.00;99.90;;;;;;5005173;28;20033;-66
2023/06/18 03:51:45;;;;;;;10.02;8.50;;;15.00;99.90;;;;;;5006598;28;20037;-66
2023/06/18 03:54:11;;;;;;;11.93;8.07;;;15.00;99.90;;;;;;5007000;28;20480;-66
2023/06/18 03:56:37;;;;;;;11.18;8.10;;;15.00;99.90;;;;;;5006241;28;20029;-66
2023/06/18 03:59:05;;;;;;;9.95;8.10;;;15.00;99.90;;;;;;5006724;28;20033;-66
2023/06/18 04:01:31;;;;;;;8.95;7.38;;;15.10;99.90;;;;;;5024669;28;20033;-66
2023/06/18 04:03:57;;;;;;;9.00;7.78;;;15.10;99.90;;;;;;5006873;28;20033;-66
2023/06/18 04:06:23;;;;;;;8.73;7.20;;;15.10;99.90;;;;;;5007481;28;20754;-66
2023/06/18 04:08:48;;;;;;;9.10;7.43;;;15.10;99.90;;;;;;5006492;28;20501;-66
2023/06/18 04:11:14;;;;;;;8.15;6.90;;;15.20;99.90;;;;;;5025267;28;20450;-67
2023/06/18 04:13:42;;;;;;;9.70;8.73;;;15.20;99.90;;;;;;5025673;28;20136;-66
2023/06/18 04:16:10;;;;;;;9.38;8.18;;;15.20;99.90;;;;;;5006882;28;20044;-66
2023/06/18 04:18:36;;;;;;;9.65;8.23;;;15.30;99.90;;;;;;5021528;28;20033;-67
2023/06/18 04:21:03;;;;;;;10.52;9.38;;;15.40;99.90;;;;;;5007368;28;20675;-66
2023/06/18 04:23:32;;;;;;;13.98;10.32;;;15.40;99.90;;;;;;5008726;28;20037;-67
2023/06/18 04:25:57;;;;;;;10.32;9.05;;;15.50;99.90;;;;;;5026407;28;20038;-67
2023/06/18 04:28:23;;;;;;;10.63;8.82;;;15.50;99.90;;;;;;5007809;28;20026;-66
2023/06/18 04:30:49;;;;;;;9.88;8.38;;;15.60;99.90;;;;;;5006097;28;20026;-67
2023/06/18 04:33:16;;;;;;;10.75;9.13;;;15.60;99.90;;;;;;5004484;28;20025;-66
2023/06/18 04:35:45;;;;;;;11.70;10.00;;;15.70;99.90;;;;;;5006751;28;20021;-67
2023/06/18 04:38:11;;;;;;;15.23;10.45;;;15.80;99.90;;;;;;5006009;28;20033;-66
2023/06/18 04:40:37;;;;;;;13.48;11.00;;;15.80;99.90;;;;;;5003146;28;20056;-66
2023/06/18 04:43:03;;;;;;;13.57;12.00;;;15.90;99.90;;;;;;5006048;28;20025;-66
2023/06/18 04:45:36;;;;;;;12.32;11.02;;;16.00;99.90;;;;;;5005405;28;20032;-66
2023/06/18 04:48:02;;;;;;;11.05;9.90;;;16.00;99.90;;;;;;5004522;28;20095;-66
2023/06/18 04:50:29;;;;;;;12.13;10.55;;;16.10;99.90;;;;;;5005698;28;20188;-66
2023/06/18 04:52:55;;;;;;;13.13;11.73;;;16.10;99.90;;;;;;5005309;28;20056;-66
2023/06/18 04:55:22;;;;;;;14.30;12.80;;;16.20;99.90;;;;;;5005116;28;20037;-66
2023/06/18 04:57:48;;;;;;;14.10;12.60;;;16.30;99.90;;;;;;5004998;28;20107;-66
2023/06/18 05:00:17;;;;;;;11.93;10.73;;;16.40;99.90;;;;;;5004942;28;20641;-67
2023/06/18 05:02:46;;;;;;;11.80;10.43;;;16.50;99.90;;;;;;4990120;28;20022;-66
2023/06/18 05:05:12;;;;;;;11.63;10.32;;;16.50;99.90;;;;;;5005624;28;20568;-66
2023/06/18 05:07:38;;;;;;;12.68;10.77;;;16.60;99.90;;;;;;5005128;28;20032;-66
2023/06/18 05:10:04;;;;;;;11.77;10.52;;;16.60;99.90;;;;;;5005266;28;20037;-66
2023/06/18 05:12:32;;;;;;;11.13;10.02;;;16.70;99.90;;;;;;5005979;28;20029;-66
2023/06/18 05:14:58;;;;;;;18.40;14.73;;;16.70;99.90;;;;;;5002523;28;20033;-66
2023/06/18 05:17:24;;;;;;;15.35;13.75;;;16.80;99.90;;;;;;5004904;28;20026;-65
2023/06/18 05:19:51;;;;;;;16.50;14.07;;;16.90;99.90;;;;;;5004857;28;20144;-66
2023/06/18 05:22:17;;;;;;;14.45;12.90;;;17.00;99.90;;;;;;5004906;28;20075;-66
2023/06/18 05:24:43;;;;;;;15.45;13.85;;;17.10;99.90;;;;;;5005100;28;20472;-66
2023/06/18 05:27:09;;;;;;;15.75;13.85;;;17.20;99.90;;;;;;5023498;28;20080;-66
2023/06/18 05:29:35;;;;;;;15.88;14.27;;;17.30;99.90;;;;;;5005163;28;20695;-66
2023/06/18 05:32:02;;;;;;;15.35;13.75;;;17.40;99.90;;;;;;5005312;28;20086;-66
2023/06/18 05:34:30;;;;;;;16.13;14.40;;;17.50;99.90;;;;;;5004444;28;20118;-66
2023/06/18 05:36:56;;;;;;;14.68;13.05;;;17.60;99.90;;;;;;5004754;28;20037;-66
2023/06/18 05:39:23;;;;;;;13.07;11.68;;;17.70;99.90;;;;;;5004725;28;20033;-66
2023/06/18 05:41:50;;;;;;;13.35;11.93;;;17.80;99.90;;;;;;5004780;28;20148;-66
2023/06/18 05:44:18;;;;;;;16.35;14.25;;;17.80;99.90;;;;;;5004471;28;20033;-66
2023/06/18 05:46:45;;;;;;;15.23;13.57;;;17.90;99.90;;;;;;5005709;28;20397;-66
2023/06/18 05:49:11;;;;;;;12.80;11.50;;;18.00;99.90;;;;;;5004427;28;20038;-66
2023/06/18 05:51:37;;;;;;;14.93;13.35;;;18.10;99.90;;;;;;5004771;28;20052;-66
2023/06/18 05:54:05;;;;;;;15.75;13.70;;;18.20;99.90;;;;;;5005036;28;20029;-65
2023/06/18 05:56:31;;;;;;;13.90;12.48;;;18.30;99.90;;;;;;5004389;28;20401;-66
2023/06/18 05:58:58;;;;;;;11.48;10.27;;;18.40;99.90;;;;;;5022394;28;20037;-66
2023/06/18 06:01:29;;;;;;;13.05;11.65;;;18.50;99.90;;;;;;5004842;28;20076;-66
2023/06/18 06:03:55;;;;;;;14.40;12.90;;;18.60;99.90;;;;;;5004544;28;20041;-65
2023/06/18 06:06:21;;;;;;;15.82;13.25;;;18.70;99.90;;;;;;5001902;28;20044;-66
2023/06/18 06:08:46;;;;;;;12.13;10.70;;;18.80;99.90;;;;;;5022228;28;20040;-66
2023/06/18 06:11:13;;;;;;;10.75;9.65;;;18.90;99.90;;;;;;5004185;28;20080;-66
2023/06/18 06:13:39;;;;;;;11.65;9.82;;;18.90;99.90;;;;;;5004398;28;20091;-66
2023/06/18 06:16:09;;;;;;;10.73;9.60;;;19.00;99.90;;;;;;4991996;28;20898;-67
2023/06/18 06:18:35;;;;;;;11.27;10.05;;;19.10;99.90;;;;;;5004330;28;20029;-66
2023/06/18 06:21:00;;;;;;;10.10;9.10;;;19.20;99.90;;;;;;5003703;28;20815;-67
2023/06/18 06:23:26;;;;;;;9.55;8.60;;;19.30;99.90;;;;;;5003447;28;20063;-67
2023/06/18 06:25:52;;;;;;;9.98;8.93;;;19.40;99.90;;;;;;5022954;28;20053;-67
2023/06/18 06:28:18;;;;;;;11.02;9.88;;;19.40;99.90;;;;;;4999844;28;20611;-67
2023/06/18 06:30:45;;;;;;;11.65;10.23;;;19.50;99.90;;;;;;5003694;28;20036;-67
2023/06/18 06:33:11;;;;;;;11.73;10.52;;;19.60;99.90;;;;;;5002140;28;20033;-67
2023/06/18 06:35:38;;;;;;;12.32;9.68;;;19.60;99.90;;;;;;5002181;28;20033;-67
2023/06/18 06:38:06;;;;;;;10.98;9.82;;;19.70;99.90;;;;;;5001602;28;20493;-67
2023/06/18 06:40:32;;;;;;;10.90;9.80;;;19.70;99.90;;;;;;5005877;28;20030;-67
2023/06/18 06:42:58;;;;;;;10.55;9.48;;;19.80;99.90;;;;;;5000928;28;20029;-66
2023/06/18 06:45:30;;;;;;;9.80;8.10;;;19.90;99.90;;;;;;5000952;28;20067;-67
2023/06/18 06:48:13;;;;;;;9.65;8.50;;;19.90;99.90;;;;;;5001422;28;20392;-67
2023/06/18 06:51:11;;;;;;;9.30;7.68;;;20.00;99.90;;;;;;4977775;28;20037;-67
2023/06/18 06:53:43;;;;;;;7.60;6.80;;;20.10;99.90;;;;;;5004378;28;20491;-67
2023/06/18 06:56:10;;;;;;;6.70;6.00;;;20.20;99.90;;;;;;5020390;28;20032;-67
2023/06/18 06:58:37;;;;;;;7.28;6.38;;;20.20;99.90;;;;;;5004443;28;20147;-67
2023/06/18 07:01:02;;;;;;;6.35;5.03;;;20.30;99.90;;;;;;5022539;28;20754;-67
2023/06/18 07:03:28;;;;;;;8.15;5.13;;;20.50;97.20;;;;;;5004491;28;20397;-67
2023/06/18 07:05:54;;;;;;;8.00;7.10;;;20.60;96.10;;;;;;5022304;28;20021;-67
2023/06/18 07:08:19;;;;;;;8.85;6.60;;;20.60;96.40;;;;;;5021087;28;20045;-67
2023/06/18 07:10:45;;;;;;;9.25;6.60;;;20.70;97.00;;;;;;5021942;28;20452;-67
2023/06/18 07:13:12;;;;;;;10.65;7.50;;;20.70;96.80;;;;;;5021365;28;20033;-67
2023/06/18 07:15:38;;;;;;;6.97;6.28;;;20.80;97.20;;;;;;5020947;28;20140;-68
2023/06/18 07:18:03;;;;;;;9.88;7.40;;;20.80;97.40;;;;;;5017345;28;20136;-67
2023/06/18 07:20:29;;;;;;;9.35;7.90;;;20.90;98.30;;;;;;5017320;28;20041;-67
2023/06/18 07:22:55;;;;;;;9.48;7.35;;;21.00;98.00;;;;;;5019942;28;20068;-67
2023/06/18 07:25:21;;;;;;;9.23;6.97;;;21.10;97.40;;;;;;5021409;28;20465;-67
2023/06/18 07:27:47;;;;;;;7.68;6.90;;;21.10;97.40;;;;;;5021016;28;20786;-67
2023/06/18 07:30:14;;;;;;;11.13;8.00;;;21.30;96.90;;;;;;5020413;28;20140;-67
2023/06/18 07:32:40;;;;;;;8.68;6.97;;;21.30;96.50;;;;;;5020838;28;21085;-67
2023/06/18 07:35:07;;;;;;;8.10;6.90;;;21.40;95.60;;;;;;5014660;28;20041;-67
2023/06/18 07:37:32;;;;;;;7.38;6.60;;;21.40;95.50;;;;;;5020439;28;20440;-67
2023/06/18 07:39:58;;;;;;;8.30;6.90;;;21.40;95.80;;;;;;5020768;28;20095;-66
2023/06/18 07:42:24;;;;;;;6.72;6.03;;;21.50;96.20;;;;;;5020835;28;20363;-66
2023/06/18 07:44:51;;;;;;;7.72;6.40;;;21.60;96.00;;;;;;5019805;28;20099;-66
2023/06/18 07:47:17;;;;;;;6.53;5.88;;;21.60;96.00;;;;;;5018505;28;20041;-66
2023/06/18 07:49:43;;;;;;;9.18;7.00;;;21.70;95.30;;;;;;5020444;28;20496;-67
2023/06/18 07:52:09;;;;;;;8.82;6.93;;;21.80;94.60;;;;;;5020135;28;20045;-66
2023/06/18 07:54:35;;;;;;;7.00;5.65;;;21.80;94.10;;;;;;5017397;28;20034;-67
2023/06/18 07:57:02;;;;;;;11.52;6.70;;;21.90;94.70;;;;;;5019862;28;20128;-67
2023/06/18 07:59:27;;;;;;;6.00;5.45;;;21.90;94.80;;;;;;5018519;28;20039;-67
2023/06/18 08:01:53;;;;;;;7.35;6.47;;;22.00;95.20;;;;;;5019394;28;20047;-67
2023/06/18 08:04:19;;;;;;;6.38;5.55;;;22.00;94.90;;;;;;5020308;28;20025;-67
2023/06/18 08:06:48;;;;;;;6.65;5.95;;;22.10;94.80;;;;;;5001258;28;20029;-65
2023/06/18 08:09:14;;;;;;;6.13;5.50;;;22.20;93.70;;;;;;5016424;28;20045;-66
2023/06/18 08:11:41;;;;;;;6.38;5.75;;;22.30;93.30;;;;;;5020506;28;20030;-66
2023/06/18 08:14:07;;;;;;;6.78;6.10;;;22.40;92.00;;;;;;5020166;28;20090;-67
2023/06/18 08:16:33;;;;;;;8.35;5.97;;;22.40;91.70;;;;;;5019520;28;20029;-67
2023/06/18 08:18:59;;;;;;;6.78;5.93;;;22.40;92.00;;;;;;5019369;28;20033;-66
2023/06/18 08:21:25;;;;;;;7.30;5.70;;;22.40;92.20;;;;;;5019888;28;20040;-67
2023/06/18 08:23:51;;;;;;;4.80;4.40;;;22.50;91.70;;;;;;5019022;28;20029;-67
2023/06/18 08:26:19;;;;;;;4.80;4.35;;;22.60;90.10;;;;;;5019768;28;20115;-67
2023/06/18 08:28:45;;;;;;;5.65;4.13;;;22.60;89.10;;;;;;5015294;28;20537;-67
2023/06/18 08:31:11;;;;;;;4.85;4.32;;;22.70;88.60;;;;;;5020002;28;20025;-67
2023/06/18 08:33:36;;;;;;;5.43;4.80;;;22.70;88.60;;;;;;5019913;28;20459;-67
2023/06/18 08:36:02;;;;;;;5.80;4.88;;;22.80;90.00;;;;;;5023173;28;20120;-67
2023/06/18 08:38:28;;;;;;;5.75;4.25;;;22.90;89.40;;;;;;5022755;28;20693;-67
2023/06/18 08:40:55;;;;;;;6.68;5.80;;;22.90;90.30;;;;;;5023653;28;20022;-67
2023/06/18 08:43:26;;;;;;;7.57;6.18;;;23.00;90.20;;;;;;5021890;28;20034;-67
2023/06/18 08:45:53;;;;;;;9.18;5.85;;;23.10;90.00;;;;;;5021682;28;20056;-67
2023/06/18 08:48:26;;;;;;;6.10;5.50;;;23.20;90.30;;;;;;5017092;28;20032;-66
2023/06/18 08:51:05;;;;;;;6.53;5.30;;;23.30;89.10;;;;;;5016773;28;20021;-66
2023/06/18 08:53:59;;;;;;;5.45;4.90;;;23.40;89.60;;;;;;5017725;28;20038;-66
2023/06/18 08:56:26;;;;;;;7.22;5.15;;;23.50;89.10;;;;;;5008881;28;20022;-66
2023/06/18 08:58:57;;;;;;;5.30;4.80;;;23.70;85.60;;;;;;5020036;28;20111;-66
2023/06/18 09:01:25;;;;;;;6.63;5.10;;;23.70;84.80;;;;;;5016882;28;20037;-66
2023/06/18 09:03:55;;;;;;;5.18;4.70;;;23.70;86.30;;;;;;4998970;28;20548;-66
2023/06/18 09:06:22;;;;;;;5.03;4.53;;;23.80;86.50;;;;;;5013756;28;20502;-66
2023/06/18 09:08:48;;;;;;;4.82;3.90;;;23.90;83.20;;;;;;5014466;28;20495;-66
2023/06/18 09:11:14;;;;;;;6.47;4.63;;;24.00;81.80;;;;;;5003595;28;20037;-66
2023/06/18 09:13:42;;;;;;;5.97;4.68;;;24.10;81.50;;;;;;5021619;28;20056;-66
2023/06/18 09:16:10;;;;;;;4.85;4.28;;;24.00;81.70;;;;;;5018392;28;20100;-66
2023/06/18 09:18:36;;;;;;;6.22;4.13;;;24.10;81.30;;;;;;5018191;28;20037;-66
2023/06/18 09:21:03;;;;;;;5.47;4.50;;;24.10;79.70;;;;;;4997714;28;20038;-66
2023/06/18 09:23:30;;;;;;;6.43;4.93;;;24.20;82.60;;;;;;5018671;28;20033;-66
2023/06/18 09:25:58;;;;;;;6.22;4.63;;;24.30;82.90;;;;;;5014806;28;20036;-66
2023/06/18 09:28:25;;;;;;;5.80;5.18;;;24.40;81.30;;;;;;5020518;28;20058;-66
2023/06/18 09:31:01;;;;;;;5.78;4.50;;;24.50;80.60;;;;;;5021069;28;20045;-66
2023/06/18 09:33:34;;;;;;;4.22;3.83;;;24.60;81.70;;;;;;5018442;28;20568;-66
2023/06/18 09:36:05;;;;;;;4.32;3.92;;;24.60;76.10;;;;;;5017234;28;20733;-66
2023/06/18 09:38:33;;;;;;;4.68;4.22;;;24.60;77.00;;;;;;5016458;28;20060;-66
2023/06/18 09:40:59;;;;;;;4.47;4.07;;;24.70;78.20;;;;;;5013662;28;20816;-66
2023/06/18 09:43:34;;;;;;;5.95;4.85;;;24.80;80.00;;;;;;4995341;28;20107;-66
2023/06/18 09:46:02;;;;;;;5.30;4.68;;;25.00;78.50;;;;;;5021053;28;20029;-66
2023/06/18 09:48:28;;;;;;;6.57;4.63;;;25.10;78.00;;;;;;5019680;28;20571;-66
2023/06/18 09:50:55;;;;;;;5.28;4.57;;;25.10;78.10;;;;;;5019465;28;20021;-66
2023/06/18 09:53:21;;;;;;;6.05;4.38;;;25.10;78.00;;;;;;5015351;28;20037;-66
2023/06/18 09:55:48;;;;;;;4.10;3.70;;;25.10;77.90;;;;;;5015378;28;20036;-66
2023/06/18 09:58:14;;;;;;;5.13;4.63;;;25.10;76.90;;;;;;5012075;28;20138;-66
2023/06/18 10:00:40;;;;;;;5.68;4.25;;;25.10;77.80;;;;;;5015391;28;20037;-66
2023/06/18 10:03:07;;;;;;;4.28;3.88;;;25.10;75.80;;;;;;5018385;28;20033;-66
2023/06/18 10:05:34;;;;;;;6.90;4.00;;;25.00;76.10;;;;;;5020729;28;20708;-66
2023/06/18 10:08:03;;;;;;;4.18;3.55;;;25.00;74.90;;;;;;5018868;28;20889;-66
2023/06/18 10:10:33;;;;;;;4.20;3.50;;;25.00;73.50;;;;;;5017533;28;20081;-66
2023/06/18 10:13:03;;;;;;;3.13;2.83;;;25.10;71.00;;;;;;5018206;28;20494;-66
2023/06/18 10:15:29;;;;;;;6.93;3.97;;;25.00;69.40;;;;;;5014677;28;20123;-66
2023/06/18 10:17:57;;;;;;;4.97;4.20;;;25.00;72.20;;;;;;5012300;28;20029;-66
2023/06/18 10:20:26;;;;;;;3.92;3.53;;;24.90;71.10;;;;;;5016629;28;20564;-66
2023/06/18 10:22:59;;;;;;;4.60;3.40;;;24.80;72.00;;;;;;5020954;28;20021;-66
2023/06/18 10:25:25;;;;;;;10.48;4.07;;;24.80;71.00;;;;;;5018746;28;20529;-66
2023/06/18 10:27:52;;;;;;;3.53;3.22;;;24.80;69.50;;;;;;5018245;28;20858;-66
2023/06/18 10:30:19;;;;;;;5.35;3.60;;;25.00;71.00;;;;;;5015378;28;20572;-66
2023/06/18 10:32:47;;;;;;;4.70;3.15;;;25.20;69.80;;;;;;5015267;28;20040;-66
2023/06/18 10:35:13;;;;;;;3.67;3.13;;;25.40;69.00;;;;;;5011513;28;20060;-66
2023/06/18 10:37:41;;;;;;;4.43;3.60;;;25.40;67.00;;;;;;5013667;28;20029;-66
2023/06/18 10:40:08;;;;;;;4.88;3.90;;;25.60;69.40;;;;;;5020081;28;20472;-66
2023/06/18 10:42:34;;;;;;;5.20;3.50;;;26.00;69.00;;;;;;5015833;28;20026;-66
2023/06/18 10:45:10;;;;;;;4.30;3.20;;;26.50;68.40;;;;;;5017864;28;20037;-66
2023/06/18 10:47:37;;;;;;;3.78;3.10;;;27.00;66.80;;;;;;5000263;28;20033;-66
2023/06/18 10:50:03;;;;;;;4.05;3.65;;;27.30;64.70;;;;;;5014774;28;20040;-66
2023/06/18 10:52:31;;;;;;;3.90;3.28;;;27.20;63.80;;;;;;5007640;28;20037;-66
2023/06/18 10:55:09;;;;;;;3.40;3.03;;;27.00;64.60;;;;;;5013150;28;20052;-66
2023/06/18 10:57:44;;;;;;;3.38;3.08;;;26.80;65.80;;;;;;5010949;28;20051;-66
2023/06/18 11:00:18;;;;;;;4.20;3.75;;;26.90;65.80;;;;;;5017641;28;20465;-66
2023/06/18 11:02:45;;;;;;;5.13;3.45;;;27.10;65.70;;;;;;5017830;28;20660;-66
2023/06/18 11:05:36;;;;;;;4.13;3.60;;;27.20;64.80;;;;;;5013639;28;20033;-66
2023/06/18 11:08:04;;;;;;;4.45;3.40;;;27.00;64.20;;;;;;5012553;28;20033;-66
2023/06/18 11:10:39;;;;;;;4.47;3.80;;;26.90;64.10;;;;;;5013470;28;20042;-66
2023/06/18 11:13:06;;;;;;;4.85;3.33;;;26.70;64.00;;;;;;5014086;28;20515;-66
2023/06/18 11:15:57;;;;;;;4.38;3.67;;;26.50;63.60;;;;;;5019482;28;20033;-66
2023/06/18 11:18:27;;;;;;;4.50;3.63;;;26.30;65.60;;;;;;5016129;28;20772;-66
2023/06/18 11:20:57;;;;;;;4.07;3.60;;;26.30;66.70;;;;;;5014988;28;20510;-66
2023/06/18 11:23:28;;;;;;;3.85;3.20;;;26.40;67.30;;;;;;5013810;28;20779;-66
2023/06/18 11:25:53;;;;;;;3.70;3.25;;;26.30;61.20;;;;;;5015212;28;20480;-66
2023/06/18 11:28:27;;;;;;;4.55;3.33;;;26.30;62.40;;;;;;5012670;28;20030;-66
2023/06/18 11:30:58;;;;;;;3.28;2.97;;;26.40;65.10;;;;;;5012370;28;20405;-66
2023/06/18 11:33:27;;;;;;;3.65;3.25;;;26.50;61.60;;;;;;5001111;28;20052;-66
2023/06/18 11:35:54;;;;;;;3.90;3.22;;;26.50;60.90;;;;;;5018150;28;20120;-66
2023/06/18 11:38:21;;;;;;;4.00;3.35;;;26.40;59.90;;;;;;5015160;28;20037;-66
2023/06/18 11:40:51;;;;;;;3.35;2.80;;;26.30;61.20;;;;;;5015831;28;20045;-66
2023/06/18 11:43:18;;;;;;;3.63;3.13;;;26.40;60.80;;;;;;5012172;28;20437;-66
2023/06/18 11:45:48;;;;;;;4.47;3.05;;;26.50;60.30;;;;;;5013284;28;20022;-66
2023/06/18 11:48:16;;;;;;;3.35;3.05;;;26.50;61.60;;;;;;5008601;28;20496;-67
2023/06/18 11:50:43;;;;;;;3.83;3.42;;;26.50;59.90;;;;;;5018810;28;20037;-67
2023/06/18 11:53:14;;;;;;;3.70;3.30;;;26.60;62.20;;;;;;5015938;28;20059;-67
2023/06/18 11:55:41;;;;;;;3.88;3.50;;;26.70;61.30;;;;;;5017768;28;20037;-67
2023/06/18 11:58:07;;;;;;;4.03;3.60;;;26.60;59.00;;;;;;5013433;28;20151;-68
2023/06/18 12:00:34;;;;;;;10.95;4.15;;;26.50;58.50;;;;;;5015415;28;20539;-62
2023/06/18 12:03:03;;;;;;;6.30;3.40;;;26.40;60.20;;;;;;5011987;28;20029;-62
2023/06/18 12:05:36;;;;;;;3.45;3.15;;;26.20;59.60;;;;;;5011432;28;20034;-62
2023/06/18 12:08:13;;;;;;;3.75;3.30;;;26.00;60.60;;;;;;5018403;28;20115;-62
2023/06/18 12:10:41;;;;;;;3.70;3.40;;;25.80;62.20;;;;;;5019440;28;20060;-62
2023/06/18 12:13:37;;;;;;;4.30;3.83;;;25.60;62.80;;;;;;5022969;28;20041;-61
2023/06/18 12:16:12;;;;;;;7.87;4.00;;;25.40;63.00;;;;;;5018693;28;20037;-61
2023/06/18 12:18:43;;;;;;;4.38;3.58;;;25.40;63.20;;;;;;5016636;28;20041;-62
2023/06/18 12:21:09;;;;;;;4.20;3.72;;;25.50;62.70;;;;;;5013619;28;20034;-62
2023/06/18 12:23:38;;;;;;;3.72;3.40;;;25.50;63.10;;;;;;5016793;28;20814;-61
2023/06/18 12:26:04;;;;;;;3.65;3.25;;;25.50;61.90;;;;;;5019844;28;20037;-62
2023/06/18 12:28:33;;;;;;;4.10;3.50;;;25.50;60.60;;;;;;5020974;28;20032;-61
2023/06/18 12:31:09;;;;;;;4.70;3.15;;;25.40;63.50;;;;;;5020126;28;20396;-62
2023/06/18 12:33:41;;;;;;;3.50;3.17;;;25.50;64.90;;;;;;5015528;28;20115;-62
2023/06/18 12:36:07;;;;;;;5.07;3.80;;;25.50;62.60;;;;;;5015457;28;20075;-62
2023/06/18 12:38:59;;;;;;;4.68;3.63;;;25.50;61.70;;;;;;5016029;28;20033;-62
2023/06/18 12:41:29;;;;;;;7.07;4.07;;;25.60;62.90;;;;;;5014554;28;20160;-61
2023/06/18 12:43:55;;;;;;;4.53;3.80;;;25.60;64.30;;;;;;5022886;28;20490;-61
2023/06/18 12:46:27;;;;;;;6.35;3.88;;;25.60;63.90;;;;;;5021844;28;20040;-61